createdAt,value
2023-02-19T00:02:48.050Z,10.16
2023-02-19T00:07:46.796Z,10.04
2023-02-19T00:12:45.523Z,10.04
2023-02-19T00:17:44.269Z,9.95
2023-02-19T00:22:43.023Z,10.06
2023-02-19T00:27:41.743Z,9.92
2023-02-19T00:32:40.629Z,10.03
2023-02-19T00:37:42.900Z,10.09
2023-02-19T00:42:41.668Z,9.97
2023-02-19T00:47:40.426Z,9.95
2023-02-19T00:52:39.469Z,10.05
2023-02-19T00:57:38.358Z,10.01
2023-02-19T01:02:37.182Z,10.06
2023-02-19T01:07:37.159Z,9.82
2023-02-19T01:12:35.858Z,9.89
2023-02-19T01:17:36.309Z,9.88
2023-02-19T01:22:35.046Z,9.83
2023-02-19T01:27:33.885Z,9.79
2023-02-19T01:32:32.690Z,9.85
2023-02-19T01:37:31.742Z,9.81
2023-02-19T01:42:30.631Z,9.60
2023-02-19T01:47:29.580Z,9.76
2023-02-19T01:52:36.213Z,9.64
2023-02-19T01:57:39.863Z,9.50
2023-02-19T02:02:40.987Z,9.59
2023-02-19T02:07:58.823Z,9.73
2023-02-19T02:12:58.586Z,9.55
2023-02-19T02:18:05.149Z,9.50
2023-02-19T02:23:16.551Z,9.44
2023-02-19T02:28:40.066Z,9.48
2023-02-19T02:33:58.863Z,9.29
2023-02-19T02:38:58.495Z,9.24
2023-02-19T02:43:58.084Z,9.33
2023-02-19T02:48:58.702Z,9.31
2023-02-19T02:54:24.139Z,9.11
2023-02-19T02:59:28.219Z,8.98
2023-02-19T03:05:11.159Z,8.90
2023-02-19T03:10:16.318Z,8.96
2023-02-19T03:15:35.736Z,9.05
2023-02-19T03:20:41.827Z,8.91
2023-02-19T03:26:00.567Z,8.96
2023-02-19T03:31:14.619Z,8.77
2023-02-19T03:36:18.983Z,8.88
2023-02-19T03:41:39.309Z,9.07
2023-02-19T03:46:46.090Z,9.22
2023-02-19T03:52:02.166Z,8.81
2023-02-19T03:57:45.500Z,8.92
2023-02-19T04:03:07.054Z,8.97
2023-02-19T04:08:14.148Z,8.80
2023-02-19T04:13:32.821Z,8.73
2023-02-19T04:18:35.577Z,8.67
2023-02-19T04:23:40.608Z,8.71
2023-02-19T04:28:39.895Z,8.66
2023-02-19T04:33:38.794Z,8.65
2023-02-19T04:38:37.747Z,8.65
2023-02-19T04:43:36.440Z,9.05
2023-02-19T04:48:35.221Z,9.18
2023-02-19T04:53:34.754Z,9.22
2023-02-19T04:58:33.549Z,8.88
2023-02-19T05:03:35.021Z,8.96
2023-02-19T05:08:34.071Z,9.33
2023-02-19T05:13:33.627Z,9.56
2023-02-19T05:18:33.347Z,9.74
2023-02-19T05:23:32.446Z,9.81
2023-02-19T05:28:34.538Z,9.71
2023-02-19T05:33:36.631Z,9.45
2023-02-19T05:38:36.556Z,9.37
2023-02-19T05:43:35.283Z,9.35
2023-02-19T05:48:34.590Z,9.61
2023-02-19T05:53:34.316Z,9.69
2023-02-19T05:58:33.487Z,9.36
2023-02-19T06:03:35.102Z,9.40
2023-02-19T06:08:34.167Z,8.93
2023-02-19T06:13:36.183Z,8.96
2023-02-19T06:18:35.375Z,9.01
2023-02-19T06:23:34.637Z,9.36
2023-02-19T06:28:37.367Z,9.31
2023-02-19T06:33:38.106Z,9.07
2023-02-19T06:38:36.957Z,8.94
2023-02-19T06:43:36.099Z,8.85
2023-02-19T06:48:35.316Z,9.02
2023-02-19T06:53:34.084Z,9.25
2023-02-19T06:58:33.924Z,9.00
2023-02-19T07:03:32.649Z,8.91
2023-02-19T07:08:31.425Z,8.86
2023-02-19T07:13:30.264Z,8.88
2023-02-19T07:18:30.652Z,8.82
2023-02-19T07:23:29.444Z,8.95
2023-02-19T07:28:28.928Z,8.99
2023-02-19T07:33:28.130Z,8.97
2023-02-19T07:38:27.973Z,8.72
2023-02-19T07:43:29.550Z,8.82
2023-02-19T07:48:35.142Z,9.11
2023-02-19T07:53:36.353Z,9.15
2023-02-19T07:58:36.290Z,9.24
2023-02-19T08:03:36.718Z,8.99
2023-02-19T08:08:35.968Z,8.81
2023-02-19T08:13:35.109Z,8.88
2023-02-19T08:18:38.450Z,8.39
2023-02-19T08:23:41.023Z,8.50
2023-02-19T08:28:40.098Z,8.18
2023-02-19T08:33:46.929Z,8.52
2023-02-19T08:38:47.437Z,8.23
2023-02-19T08:43:46.442Z,8.47
2023-02-19T08:48:48.195Z,8.13
2023-02-19T08:53:47.471Z,8.07
2023-02-19T08:58:46.513Z,8.06
2023-02-19T09:03:45.426Z,7.94
2023-02-19T09:08:49.439Z,7.77
2023-02-19T09:13:48.419Z,7.66
2023-02-19T09:18:47.414Z,7.69
2023-02-19T09:23:47.084Z,7.54
2023-02-19T09:28:49.283Z,7.67
2023-02-19T09:33:48.818Z,7.29
2023-02-19T09:38:48.128Z,7.46
2023-02-19T09:43:47.277Z,7.30
2023-02-19T09:48:46.079Z,7.16
2023-02-19T09:53:52.291Z,6.99
2023-02-19T09:58:57.378Z,7.06
2023-02-19T10:03:56.282Z,7.50
2023-02-19T10:09:26.971Z,7.81
2023-02-19T10:14:36.977Z,7.30
2023-02-19T10:19:36.597Z,6.70
2023-02-19T10:24:44.047Z,5.85
2023-02-19T10:29:45.354Z,11.10
2023-02-19T10:34:45.200Z,6.92
2023-02-19T10:39:50.678Z,6.78
2023-02-19T10:45:01.973Z,6.06
2023-02-19T10:50:03.411Z,6.37
2023-02-19T10:55:28.475Z,5.84
2023-02-19T11:00:30.545Z,6.11
2023-02-19T11:05:29.641Z,5.90
2023-02-19T11:10:39.143Z,5.78
2023-02-19T11:15:38.037Z,5.71
2023-02-19T11:20:36.824Z,6.61
2023-02-19T11:25:35.660Z,7.29
2023-02-19T11:30:43.345Z,6.61
2023-02-19T11:35:43.370Z,6.37
2023-02-19T11:40:42.128Z,6.03
2023-02-19T11:46:09.657Z,6.67
2023-02-19T11:51:28.308Z,6.25
2023-02-19T11:56:36.956Z,6.03
2023-02-19T12:02:00.719Z,5.80
2023-02-19T12:07:22.978Z,6.46
2023-02-19T12:12:30.906Z,6.20
2023-02-19T12:17:45.054Z,6.97
2023-02-19T12:22:51.872Z,6.07
2023-02-19T12:28:09.377Z,6.26
2023-02-19T12:33:44.879Z,6.12
2023-02-19T12:38:47.785Z,6.75
2023-02-19T12:44:05.556Z,7.03
2023-02-19T12:49:04.312Z,7.16
2023-02-19T12:54:12.948Z,8.03
2023-02-19T12:59:35.353Z,7.73
2023-02-19T13:04:53.164Z,7.48
2023-02-19T13:10:03.068Z,6.87
2023-02-19T13:15:07.616Z,6.95
2023-02-19T13:20:31.008Z,6.59
2023-02-19T13:25:48.202Z,7.50
2023-02-19T13:30:56.322Z,7.36
2023-02-19T13:36:18.376Z,6.85
2023-02-19T13:41:19.160Z,6.61
2023-02-19T13:46:19.407Z,6.61
2023-02-19T13:51:18.866Z,6.51
2023-02-19T13:56:30.436Z,6.57
2023-02-19T14:01:54.301Z,6.29
2023-02-19T14:07:06.087Z,6.54
2023-02-19T14:12:05.484Z,6.95
2023-02-19T14:17:10.340Z,6.63
2023-02-19T14:22:46.890Z,6.42
2023-02-19T14:27:46.145Z,9.03
2023-02-19T14:32:50.954Z,9.27
2023-02-19T14:37:54.155Z,10.31
2023-02-19T14:42:57.310Z,7.81
2023-02-19T14:47:57.355Z,6.95
2023-02-19T14:53:00.647Z,6.74
2023-02-19T14:58:06.165Z,7.12
2023-02-19T15:03:07.146Z,6.63
2023-02-19T15:08:17.888Z,6.49
2023-02-19T15:13:24.155Z,6.55
2023-02-19T15:18:25.254Z,6.41
2023-02-19T15:23:25.741Z,6.15
2023-02-19T15:28:35.089Z,6.29
2023-02-19T15:33:34.600Z,6.26
2023-02-19T15:38:34.113Z,6.41
2023-02-19T15:43:44.833Z,6.31
2023-02-19T15:49:09.589Z,6.26
2023-02-19T15:54:27.162Z,6.15
2023-02-19T15:59:33.003Z,6.12
2023-02-19T16:04:34.597Z,6.04
2023-02-19T16:09:38.134Z,5.95
2023-02-19T16:14:37.520Z,5.74
2023-02-19T16:20:00.930Z,9.10
2023-02-19T16:25:06.075Z,6.61
2023-02-19T16:30:25.359Z,6.14
2023-02-19T16:35:40.321Z,5.59
2023-02-19T16:40:48.360Z,5.59
2023-02-19T16:45:47.696Z,5.55
2023-02-19T16:50:46.525Z,5.32
2023-02-19T16:55:46.004Z,5.68
2023-02-19T17:00:44.822Z,5.54
2023-02-19T17:05:44.115Z,5.84
2023-02-19T17:10:43.123Z,5.57
2023-02-19T17:15:42.275Z,5.65
2023-02-19T17:20:43.301Z,5.15
2023-02-19T17:25:42.250Z,5.43
2023-02-19T17:30:41.238Z,5.22
2023-02-19T17:35:40.180Z,5.10
2023-02-19T17:40:39.167Z,7.82
2023-02-19T17:45:38.442Z,10.46
2023-02-19T17:50:37.218Z,7.61
2023-02-19T17:55:36.060Z,6.00
2023-02-19T18:00:36.365Z,5.13
2023-02-19T18:05:35.081Z,5.36
2023-02-19T18:10:33.898Z,5.09
2023-02-19T18:15:32.626Z,5.33
2023-02-19T18:20:31.881Z,5.11
2023-02-19T18:25:30.817Z,5.43
2023-02-19T18:30:30.207Z,5.26
2023-02-19T18:35:28.996Z,5.27
2023-02-19T18:40:30.962Z,5.09
2023-02-19T18:45:35.238Z,5.12
2023-02-19T18:50:35.050Z,5.39
2023-02-19T18:55:33.780Z,5.14
2023-02-19T19:00:32.535Z,5.16
2023-02-19T19:05:31.355Z,4.73
2023-02-19T19:10:30.773Z,5.00
2023-02-19T19:15:29.931Z,5.08
2023-02-19T19:20:28.720Z,4.94
2023-02-19T19:25:27.489Z,4.93
2023-02-19T19:30:26.619Z,4.90
2023-02-19T19:35:25.648Z,4.62
2023-02-19T19:40:24.416Z,4.62
2023-02-19T19:45:23.489Z,5.04
2023-02-19T19:50:22.457Z,4.65
2023-02-19T19:55:21.906Z,4.61
2023-02-19T20:00:23.496Z,4.67
2023-02-19T20:05:22.225Z,4.77
2023-02-19T20:10:21.364Z,4.80
2023-02-19T20:15:23.697Z,4.77
2023-02-19T20:20:22.953Z,4.36
2023-02-19T20:25:22.917Z,4.53
2023-02-19T20:30:24.359Z,7.44
2023-02-19T20:35:26.481Z,5.06
2023-02-19T20:40:30.468Z,4.64
2023-02-19T20:45:31.161Z,4.69
2023-02-19T20:50:29.976Z,4.08
2023-02-19T20:55:28.861Z,4.38
2023-02-19T21:00:28.048Z,4.23
2023-02-19T21:05:26.860Z,4.01
2023-02-19T21:10:26.116Z,4.23
2023-02-19T21:15:24.915Z,4.31
2023-02-19T21:20:23.706Z,4.27
2023-02-19T21:25:22.551Z,4.67
2023-02-19T21:30:21.318Z,4.95
2023-02-19T21:35:20.383Z,5.02
2023-02-19T21:40:21.608Z,4.83
2023-02-19T21:45:20.360Z,5.12
2023-02-19T21:50:20.139Z,4.69
2023-02-19T21:55:18.952Z,4.94
2023-02-19T22:00:18.334Z,5.11
2023-02-19T22:05:17.138Z,4.96
2023-02-19T22:10:16.891Z,4.95
2023-02-19T22:15:15.792Z,5.08
2023-02-19T22:20:17.234Z,4.81
2023-02-19T22:25:16.069Z,5.01
2023-02-19T22:30:15.124Z,5.10
2023-02-19T22:35:15.772Z,4.89
2023-02-19T22:40:14.769Z,4.85
2023-02-19T22:45:13.812Z,4.79
2023-02-19T22:50:22.368Z,4.93
2023-02-19T22:55:21.976Z,4.62
2023-02-19T23:00:21.733Z,5.25
2023-02-19T23:05:20.665Z,4.84
2023-02-19T23:10:19.488Z,5.07
2023-02-19T23:15:18.233Z,4.48
2023-02-19T23:20:17.245Z,5.21
2023-02-19T23:25:16.193Z,5.13
2023-02-19T23:30:17.078Z,5.18
2023-02-19T23:35:16.072Z,5.45
2023-02-19T23:40:14.945Z,4.93
2023-02-19T23:45:16.361Z,5.07
2023-02-19T23:50:16.246Z,5.53
2023-02-19T23:55:15.134Z,5.36
